Time;durP1;ratioP1;P1;durP2;ratioP2;P2;SDS_P1;SDS_P2;PMS_P1;PMS_P2;Temp;Humidity;BMP_temperature;BMP_pressure;BME280_temperature;BME280_humidity;BME280_pressure;Samples;Min_cycle;Max_cycle;Signal;HPM_P1;HPM_P2
2022/07/31 00:02:15;;;;;;;0.10;0.10;;;;;;;22.71;47.53;101861.41;5051729;28;20031;-82
2022/07/31 00:04:42;;;;;;;0.30;0.30;;;;;;;22.69;47.97;101859.75;5052678;28;20133;-82
2022/07/31 00:07:08;;;;;;;0.10;0.10;;;;;;;22.65;48.54;101852.78;5052303;28;20060;-81
2022/07/31 00:09:34;;;;;;;0.10;0.10;;;;;;;22.64;48.32;101857.28;5052155;28;20033;-82
2022/07/31 00:12:00;;;;;;;0.20;0.20;;;;;;;22.60;49.17;101851.22;5051409;28;20033;-82
2022/07/31 00:14:26;;;;;;;0.08;0.08;;;;;;;22.59;48.78;101832.38;5051693;28;20040;-81
2022/07/31 00:16:52;;;;;;;0.10;0.10;;;;;;;22.58;48.98;101838.72;5052204;28;20523;-82
2022/07/31 00:19:18;;;;;;;0.10;0.10;;;;;;;22.55;49.50;101836.22;5052130;28;20040;-81
2022/07/31 00:21:45;;;;;;;0.10;0.10;;;;;;;22.51;48.82;101835.50;5051131;28;20611;-81
2022/07/31 00:24:11;;;;;;;0.10;0.10;;;;;;;22.50;48.63;101838.28;5051937;28;20048;-81
2022/07/31 00:26:38;;;;;;;0.10;0.10;;;;;;;22.47;48.65;101828.53;5051973;28;20052;-82
2022/07/31 00:29:04;;;;;;;0.10;0.10;;;;;;;22.43;48.75;101819.72;5051924;28;20104;-81
2022/07/31 00:31:30;;;;;;;0.10;0.10;;;;;;;22.43;49.05;101813.44;5051140;28;20025;-82
2022/07/31 00:33:56;;;;;;;0.17;0.17;;;;;;;22.41;49.76;101815.38;5051780;28;20400;-82
2022/07/31 00:36:23;;;;;;;0.40;0.40;;;;;;;22.36;50.51;101820.97;5051696;28;20035;-82
2022/07/31 00:38:49;;;;;;;0.03;0.03;;;;;;;22.38;49.53;101818.22;5051732;28;20036;-82
2022/07/31 00:41:15;;;;;;;0.00;0.00;;;;;;;22.35;50.09;101815.66;5050421;28;20052;-82
2022/07/31 00:43:41;;;;;;;0.17;0.17;;;;;;;22.33;50.29;101809.47;5051485;28;20037;-81
2022/07/31 00:46:07;;;;;;;0.10;0.10;;;;;;;22.27;49.61;101808.00;5051681;28;20029;-81
2022/07/31 00:48:34;;;;;;;0.00;0.00;;;;;;;22.27;49.93;101802.59;5052188;28;20040;-81
2022/07/31 00:51:00;;;;;;;0.00;0.00;;;;;;;22.25;50.79;101805.34;5054690;28;20121;-81
2022/07/31 00:53:26;;;;;;;0.08;0.08;;;;;;;22.26;50.31;101804.41;5055352;28;20063;-81
2022/07/31 00:55:52;;;;;;;0.00;0.00;;;;;;;22.26;50.50;101796.31;5054969;28;20036;-81
2022/07/31 00:58:19;;;;;;;0.00;0.00;;;;;;;22.22;51.29;101805.53;5055267;28;20050;-81
2022/07/31 01:00:46;;;;;;;0.10;0.10;;;;;;;22.23;50.37;101798.28;5054475;28;20119;-81
2022/07/31 01:03:13;;;;;;;0.05;0.05;;;;;;;22.24;50.81;101794.63;5054934;28;20033;-81
2022/07/31 01:05:40;;;;;;;0.10;0.10;;;;;;;22.25;51.03;101789.16;5055359;28;20078;-81
2022/07/31 01:08:06;;;;;;;0.05;0.05;;;;;;;22.26;51.27;101793.59;5055455;28;20487;-81
2022/07/31 01:13:19;;;;;;;0.20;0.20;;;;;;;22.29;51.92;101782.66;5112161;27;20391;-77
2022/07/31 01:15:46;;;;;;;0.10;0.10;;;;;;;22.30;51.49;101776.28;5112321;28;20028;-77
2022/07/31 01:18:14;;;;;;;0.10;0.10;;;;;;;22.31;51.16;101779.84;5111731;28;20077;-76
2022/07/31 01:20:43;;;;;;;0.20;0.20;;;;;;;22.28;51.51;101778.19;5111873;28;20059;-76
2022/07/31 01:23:34;;;;;;;0.20;0.20;;;;;;;22.37;53.03;101782.25;5112097;28;20432;-77
2022/07/31 01:31:38;;;;;;;0.10;0.10;;;;;;;22.34;53.31;101792.31;5069367;28;20391;-77
2022/07/31 01:34:15;;;;;;;0.10;0.10;;;;;;;22.36;53.78;101793.13;5071018;28;20044;-77
2022/07/31 01:36:48;;;;;;;0.10;0.10;;;;;;;22.37;53.37;101792.13;5050477;28;20052;-76
2022/07/31 01:39:15;;;;;;;0.10;0.10;;;;;;;22.36;53.47;101788.56;5050402;28;20064;-77
2022/07/31 01:41:45;;;;;;;0.08;0.08;;;;;;;22.37;53.80;101786.72;5049608;28;20029;-77
2022/07/31 01:44:14;;;;;;;0.10;0.10;;;;;;;22.37;54.57;101779.56;5050166;28;20094;-77
2022/07/31 01:46:42;;;;;;;0.10;0.10;;;;;;;22.35;53.29;101780.56;5050797;28;20094;-78
2022/07/31 01:49:10;;;;;;;0.08;0.08;;;;;;;22.35;54.37;101789.53;5051004;28;20029;-77
2022/07/31 01:51:40;;;;;;;0.00;0.00;;;;;;;22.37;55.26;101790.34;5050021;28;20108;-77
2022/07/31 01:54:07;;;;;;;0.00;0.00;;;;;;;22.38;54.23;101777.72;5050172;28;20487;-77
2022/07/31 01:56:34;;;;;;;0.10;0.10;;;;;;;22.37;56.32;101773.22;5049690;28;20025;-77
2022/07/31 01:59:02;;;;;;;0.03;0.03;;;;;;;22.34;55.22;101784.22;5049992;28;20534;-77
2022/07/31 02:01:31;;;;;;;0.10;0.10;;;;;;;22.35;55.84;101772.47;5048853;28;20029;-77
2022/07/31 02:03:58;;;;;;;0.10;0.10;;;;;;;22.35;56.11;101780.56;5049940;28;20371;-77
2022/07/31 02:06:25;;;;;;;0.10;0.10;;;;;;;22.30;54.64;101784.38;5050165;28;20029;-78
2022/07/31 02:08:54;;;;;;;0.00;0.00;;;;;;;22.27;56.38;101779.16;5050211;28;20120;-77
2022/07/31 02:11:21;;;;;;;0.38;0.38;;;;;;;22.27;56.48;101773.75;5049067;28;20043;-77
2022/07/31 02:13:48;;;;;;;0.10;0.10;;;;;;;22.25;56.76;101775.66;5049963;28;20033;-77
2022/07/31 02:16:17;;;;;;;0.10;0.10;;;;;;;22.23;57.34;101760.50;5050005;28;20056;-77
2022/07/31 02:18:44;;;;;;;0.10;0.10;;;;;;;22.21;56.68;101763.28;5049312;28;20036;-77
2022/07/31 02:21:10;;;;;;;0.10;0.10;;;;;;;22.17;57.24;101760.84;5049099;28;20391;-76
2022/07/31 02:23:36;;;;;;;0.10;0.10;;;;;;;22.14;57.75;101756.47;5049329;28;20124;-77
2022/07/31 02:26:03;;;;;;;0.00;0.00;;;;;;;22.12;57.83;101739.53;5050013;28;20044;-77
2022/07/31 02:28:33;;;;;;;3.83;0.65;;;;;;;22.13;57.81;101747.53;5054321;28;20402;-78
2022/07/31 02:31:00;;;;;;;0.00;0.00;;;;;;;22.13;57.56;101744.81;5052658;28;20402;-77
2022/07/31 02:33:27;;;;;;;0.00;0.00;;;;;;;22.13;58.03;101743.94;5054700;28;20037;-78
2022/07/31 02:35:55;;;;;;;0.10;0.10;;;;;;;22.12;57.93;101743.06;5053627;28;20032;-77
2022/07/31 02:38:25;;;;;;;1.65;1.10;;;;;;;22.14;58.28;101745.69;5053756;28;20033;-77
2022/07/31 02:40:56;;;;;;;0.10;0.10;;;;;;;22.17;57.68;101750.03;5051239;28;20048;-77
2022/07/31 02:43:24;;;;;;;0.00;0.00;;;;;;;22.17;57.72;101740.13;5040449;28;20036;-76
2022/07/31 02:45:51;;;;;;;0.00;0.00;;;;;;;22.16;58.24;101727.59;5040342;28;20029;-77
2022/07/31 02:48:17;;;;;;;0.10;0.10;;;;;;;22.17;57.87;101734.72;5041076;28;20185;-77
2022/07/31 02:50:44;;;;;;;0.10;0.10;;;;;;;22.14;58.64;101729.50;5039869;28;20029;-77
2022/07/31 02:53:10;;;;;;;0.10;0.10;;;;;;;22.16;58.12;101734.78;5041066;28;20033;-78
2022/07/31 02:55:38;;;;;;;0.00;0.00;;;;;;;22.14;58.44;101734.88;5040438;28;20040;-77
2022/07/31 02:58:04;;;;;;;0.10;0.10;;;;;;;22.12;59.06;101731.41;5039473;28;20120;-77
2022/07/31 03:00:31;;;;;;;0.30;0.30;;;;;;;22.09;59.75;101726.16;5040507;28;20036;-78
2022/07/31 03:02:57;;;;;;;0.30;0.30;;;;;;;22.10;59.53;101734.19;5040103;28;20039;-78
2022/07/31 03:05:23;;;;;;;2.55;1.95;;;;;;;22.09;58.79;101723.47;5039483;28;20036;-78
2022/07/31 03:07:49;;;;;;;0.10;0.10;;;;;;;22.06;59.51;101727.22;5040838;28;20594;-78
2022/07/31 03:10:16;;;;;;;0.08;0.08;;;;;;;22.06;60.50;101727.22;5039506;28;20018;-78
2022/07/31 03:12:45;;;;;;;0.10;0.10;;;;;;;22.08;59.33;101716.31;5039071;28;20372;-78
2022/07/31 03:15:14;;;;;;;0.25;0.25;;;;;;;22.08;59.49;101714.53;5040051;28;20411;-76
2022/07/31 03:17:42;;;;;;;0.10;0.10;;;;;;;22.08;59.49;101702.84;5039692;28;20027;-78
2022/07/31 03:20:10;;;;;;;0.10;0.10;;;;;;;22.06;59.29;101710.16;5040060;28;20044;-78
2022/07/31 03:22:38;;;;;;;0.15;0.15;;;;;;;22.04;60.18;101712.06;5039322;28;20029;-77
2022/07/31 03:25:05;;;;;;;0.20;0.20;;;;;;;22.03;60.31;101721.09;5040407;28;20022;-77
2022/07/31 03:27:31;;;;;;;0.10;0.10;;;;;;;21.98;60.74;101718.66;5039711;28;20036;-78
2022/07/31 03:29:57;;;;;;;0.10;0.10;;;;;;;22.00;60.66;101718.59;5040131;28;20060;-77
2022/07/31 03:32:23;;;;;;;0.70;0.70;;;;;;;21.98;60.06;101719.53;5039012;28;20039;-77
2022/07/31 03:34:50;;;;;;;0.00;0.00;;;;;;;21.98;60.84;101713.25;5039612;28;20040;-77
2022/07/31 03:37:16;;;;;;;0.05;0.05;;;;;;;21.95;61.07;101719.69;5039692;28;20037;-78
2022/07/31 03:39:42;;;;;;;0.00;0.00;;;;;;;21.91;61.03;101722.66;5040097;28;20108;-77
2022/07/31 03:42:09;;;;;;;0.00;0.00;;;;;;;21.93;60.71;101716.22;5038847;28;20484;-77
2022/07/31 03:44:36;;;;;;;0.65;0.65;;;;;;;21.93;60.34;101715.34;5039752;28;20057;-78
2022/07/31 03:47:03;;;;;;;0.35;0.35;;;;;;;21.94;60.75;101723.38;5039354;28;20087;-77
2022/07/31 03:49:31;;;;;;;0.10;0.10;;;;;;;21.92;61.48;101717.19;5039259;28;20025;-77
2022/07/31 03:51:58;;;;;;;0.10;0.10;;;;;;;21.89;61.58;101722.72;5038316;28;20044;-78
2022/07/31 03:54:24;;;;;;;0.05;0.05;;;;;;;21.88;61.44;101722.81;5039209;28;20153;-78
2022/07/31 03:56:52;;;;;;;0.10;0.10;;;;;;;21.80;61.83;101721.38;5039909;28;20415;-77
2022/07/31 03:59:19;;;;;;;1.08;0.98;;;;;;;21.86;61.40;101720.22;5038881;28;20576;-76
2022/07/31 04:01:46;;;;;;;0.17;0.17;;;;;;;21.80;61.88;101718.69;5038502;28;20030;-78
2022/07/31 04:04:12;;;;;;;0.00;0.00;;;;;;;21.76;61.91;101716.28;5039067;28;20510;-77
2022/07/31 04:06:40;;;;;;;0.17;0.17;;;;;;;21.76;60.74;101716.28;5039073;28;20112;-78
2022/07/31 04:09:07;;;;;;;0.20;0.20;;;;;;;21.78;61.22;101711.63;5038619;28;20025;-78
2022/07/31 04:11:33;;;;;;;0.10;0.10;;;;;;;21.76;61.68;101714.44;5038573;28;20101;-77
2022/07/31 04:13:59;;;;;;;0.00;0.00;;;;;;;21.74;61.40;101710.06;5039225;28;20029;-77
2022/07/31 04:16:25;;;;;;;0.50;0.50;;;;;;;21.69;61.44;101712.16;5038405;28;20041;-78
2022/07/31 04:18:51;;;;;;;0.10;0.10;;;;;;;21.68;61.64;101710.41;5038932;28;20120;-78
2022/07/31 04:21:17;;;;;;;0.03;0.03;;;;;;;21.71;61.41;101702.13;5038212;28;20045;-77
2022/07/31 04:23:43;;;;;;;0.00;0.00;;;;;;;21.74;61.67;101693.88;5039458;28;20029;-78
2022/07/31 04:26:09;;;;;;;0.10;0.10;;;;;;;21.76;61.40;101697.38;5039777;28;20029;-77
2022/07/31 04:28:36;;;;;;;0.10;0.10;;;;;;;21.69;61.87;101695.97;5039361;28;20032;-77
2022/07/31 04:31:02;;;;;;;0.10;0.10;;;;;;;21.74;61.69;101693.88;5038508;28;20036;-77
2022/07/31 04:33:28;;;;;;;0.22;0.22;;;;;;;21.74;61.40;101704.69;5039795;28;20095;-77
2022/07/31 04:35:54;;;;;;;0.10;0.10;;;;;;;21.72;61.63;101702.06;5039951;28;20091;-77
2022/07/31 04:38:20;;;;;;;0.10;0.10;;;;;;;21.74;61.47;101700.13;5040561;28;20037;-78
2022/07/31 04:40:48;;;;;;;0.10;0.10;;;;;;;21.76;61.50;101702.78;5039131;28;20025;-77
2022/07/31 04:43:15;;;;;;;0.03;0.03;;;;;;;21.73;61.91;101697.53;5039765;28;20029;-77
2022/07/31 04:45:42;;;;;;;0.00;0.00;;;;;;;21.73;62.13;101687.63;5040028;28;20075;-77
2022/07/31 04:48:09;;;;;;;0.08;0.08;;;;;;;21.73;62.34;101686.75;5040262;28;20467;-77
2022/07/31 04:50:36;;;;;;;0.00;0.00;;;;;;;21.78;62.15;101684.66;5039803;28;20021;-77
2022/07/31 04:53:02;;;;;;;0.20;0.20;;;;;;;21.75;61.84;101688.41;5039679;28;20041;-77
2022/07/31 04:55:29;;;;;;;0.10;0.10;;;;;;;21.78;62.45;101684.66;5039284;28;20033;-77
2022/07/31 04:57:55;;;;;;;0.90;0.90;;;;;;;21.84;62.22;101689.72;5040309;28;20034;-77
2022/07/31 05:00:21;;;;;;;0.10;0.10;;;;;;;21.80;61.92;101688.16;5039315;28;20503;-78
2022/07/31 05:02:47;;;;;;;0.52;0.50;;;;;;;21.91;62.26;101688.44;5039307;28;20507;-77
2022/07/31 05:05:13;;;;;;;0.55;0.55;;;;;;;21.93;61.58;101685.66;5039209;28;20021;-77
2022/07/31 05:07:39;;;;;;;0.25;0.25;;;;;;;21.95;61.99;101689.16;5039592;28;20037;-77
2022/07/31 05:10:06;;;;;;;0.20;0.20;;;;;;;21.96;62.14;101693.59;5039447;28;20070;-77
2022/07/31 05:12:32;;;;;;;0.10;0.10;;;;;;;22.01;62.17;101691.53;5039364;28;20039;-77
2022/07/31 05:14:58;;;;;;;1.20;0.98;;;;;;;22.01;62.79;101693.31;5039719;28;20029;-77
2022/07/31 05:17:24;;;;;;;0.10;0.10;;;;;;;21.94;62.89;101688.28;5039325;28;20506;-77
2022/07/31 05:19:50;;;;;;;0.17;0.17;;;;;;;21.90;63.17;101689.41;5039786;28;20040;-77
2022/07/31 05:22:16;;;;;;;0.20;0.20;;;;;;;21.87;63.20;101700.38;5058588;22;20025;-82
2022/07/31 05:24:42;;;;;;;0.43;0.43;;;;;;;21.95;63.19;101690.00;5017449;28;20045;-83
2022/07/31 05:27:08;;;;;;;0.20;0.20;;;;;;;21.92;63.55;101687.50;5020074;28;20408;-82
2022/07/31 05:29:34;;;;;;;0.10;0.10;;;;;;;22.03;63.41;101696.81;5019476;28;20401;-82
2022/07/31 05:32:01;;;;;;;0.47;0.47;;;;;;;22.01;63.17;101696.03;5019561;28;20037;-81
2022/07/31 05:34:28;;;;;;;1.95;1.85;;;;;;;22.02;63.79;101700.47;5025195;28;20030;-82
2022/07/31 05:36:54;;;;;;;0.10;0.10;;;;;;;22.10;62.87;101688.31;5019553;28;20038;-83
2022/07/31 05:39:20;;;;;;;0.30;0.30;;;;;;;22.07;63.74;101687.59;5019523;28;20521;-82
2022/07/31 05:41:49;;;;;;;0.43;0.43;;;;;;;22.18;63.45;101689.72;5017888;28;20498;-82
2022/07/31 05:44:15;;;;;;;0.20;0.20;;;;;;;22.12;63.61;101699.03;5018882;28;20113;-82
2022/07/31 05:46:41;;;;;;;0.52;0.47;;;;;;;22.15;63.46;101693.44;5019693;28;20041;-82
2022/07/31 05:49:07;;;;;;;4.07;1.52;;;;;;;22.14;63.70;101689.91;5018523;28;20037;-82
2022/07/31 05:51:34;;;;;;;1.13;0.75;;;;;;;22.17;64.02;101691.56;5017423;28;20034;-82
2022/07/31 05:54:00;;;;;;;0.10;0.10;;;;;;;22.20;64.02;101685.09;5019625;28;20045;-82
2022/07/31 05:56:26;;;;;;;0.40;0.40;;;;;;;22.27;64.01;101686.50;5019168;28;20057;-83
2022/07/31 05:58:52;;;;;;;0.85;0.85;;;;;;;22.28;63.88;101675.63;5018235;28;20030;-84
2022/07/31 06:01:19;;;;;;;0.38;0.38;;;;;;;22.32;63.73;101679.03;5017335;28;20044;-83
2022/07/31 06:03:45;;;;;;;0.20;0.20;;;;;;;22.33;64.20;101679.88;5018477;28;20083;-83
2022/07/31 06:06:11;;;;;;;1.38;0.82;;;;;;;22.38;63.96;101680.50;5017596;28;20033;-84
2022/07/31 06:08:37;;;;;;;0.10;0.10;;;;;;;22.44;63.57;101683.75;5017778;28;20041;-84
2022/07/31 06:11:03;;;;;;;0.52;0.52;;;;;;;22.44;63.98;101672.06;5017429;28;20509;-83
2022/07/31 06:13:29;;;;;;;0.30;0.30;;;;;;;22.46;63.52;101672.88;5018069;28;20034;-84
2022/07/31 06:15:55;;;;;;;1.00;1.00;;;;;;;22.53;62.93;101671.56;5018413;28;20022;-83
2022/07/31 06:18:22;;;;;;;0.50;0.50;;;;;;;22.51;63.57;101680.72;5021423;28;20034;-82
2022/07/31 06:20:48;;;;;;;0.25;0.25;;;;;;;22.49;63.68;101688.03;5020818;28;20025;-84
2022/07/31 06:23:14;;;;;;;0.05;0.05;;;;;;;22.58;63.72;101685.66;5020755;28;20080;-83
2022/07/31 06:25:40;;;;;;;0.77;0.77;;;;;;;22.62;63.58;101687.22;5021647;28;20038;-82
2022/07/31 06:28:07;;;;;;;1.13;1.13;;;;;;;22.72;63.42;101686.72;5021031;28;20033;-81
2022/07/31 06:30:33;;;;;;;0.13;0.13;;;;;;;22.65;63.14;101701.53;5021065;28;20088;-83
2022/07/31 06:32:59;;;;;;;0.20;0.20;;;;;;;22.66;63.44;101687.06;5019954;28;20497;-83
2022/07/31 06:35:25;;;;;;;0.25;0.25;;;;;;;22.72;63.36;101686.72;5021769;28;20109;-83
2022/07/31 06:37:51;;;;;;;0.17;0.17;;;;;;;22.87;63.11;101685.78;5020046;28;20036;-82
2022/07/31 06:40:17;;;;;;;1.95;1.85;;;;;;;22.97;63.10;101680.72;5018894;28;20026;-83
2022/07/31 06:42:44;;;;;;;0.43;0.43;;;;;;;23.06;62.54;101668.50;5019547;28;20113;-83
2022/07/31 06:45:10;;;;;;;0.60;0.60;;;;;;;22.96;63.11;101678.13;5020352;28;20022;-83
2022/07/31 06:47:36;;;;;;;0.75;0.75;;;;;;;23.00;63.14;101679.66;5019777;28;20049;-82
2022/07/31 06:50:04;;;;;;;0.95;0.95;;;;;;;23.07;62.80;101675.66;5020765;28;20052;-83
2022/07/31 06:52:30;;;;;;;0.85;0.80;;;;;;;23.12;62.97;101673.53;5019581;28;20113;-83
2022/07/31 06:54:57;;;;;;;1.00;1.00;;;;;;;23.19;63.90;101674.06;5020643;28;20058;-83
2022/07/31 06:57:23;;;;;;;0.77;0.77;;;;;;;23.23;62.45;101681.91;5020109;28;20104;-83
2022/07/31 06:59:49;;;;;;;0.20;0.20;;;;;;;23.09;63.63;101671.00;5019925;28;20036;-82
2022/07/31 07:02:15;;;;;;;2.50;1.38;;;;;;;23.10;63.84;101675.44;5018792;28;20068;-83
2022/07/31 07:04:41;;;;;;;0.25;0.25;;;;;;;23.17;63.85;101681.41;5019432;28;20398;-83
2022/07/31 07:07:07;;;;;;;2.17;1.98;;;;;;;23.08;64.10;101672.00;5018199;28;20049;-84
2022/07/31 07:09:33;;;;;;;0.20;0.20;;;;;;;23.05;64.06;101672.16;5018478;28;20092;-83
2022/07/31 07:12:00;;;;;;;0.43;0.43;;;;;;;22.91;64.02;101671.13;5019975;28;20113;-82
2022/07/31 07:14:26;;;;;;;1.77;1.23;;;;;;;22.99;64.22;101670.72;5020627;28;20037;-82
2022/07/31 07:16:52;;;;;;;0.63;0.63;;;;;;;23.07;63.65;101665.69;5020615;28;20034;-83
2022/07/31 07:19:18;;;;;;;0.03;0.03;;;;;;;23.08;63.93;101672.00;5019889;28;20560;-82
2022/07/31 07:21:44;;;;;;;1.42;1.40;;;;;;;23.13;64.06;101675.28;5018947;28;20426;-83
2022/07/31 07:24:11;;;;;;;1.15;1.05;;;;;;;23.03;63.49;101679.47;5020694;28;20034;-83
2022/07/31 07:26:37;;;;;;;1.50;1.40;;;;;;;22.99;63.18;101678.81;5020502;28;20025;-83
2022/07/31 07:29:03;;;;;;;0.88;0.88;;;;;;;23.04;63.71;101671.28;5019061;28;20037;-83
2022/07/31 07:31:30;;;;;;;3.72;1.92;;;;;;;22.93;63.73;101677.34;5018569;28;20030;-82
2022/07/31 07:33:56;;;;;;;0.60;0.60;;;;;;;23.08;64.00;101661.19;5020059;28;20029;-83
2022/07/31 07:36:23;;;;;;;1.40;1.35;;;;;;;23.05;63.69;101647.81;5019576;28;20037;-83
2022/07/31 07:38:49;;;;;;;0.40;0.40;;;;;;;23.18;63.28;101664.19;5020243;28;20037;-83
2022/07/31 07:41:15;;;;;;;0.60;0.60;;;;;;;23.27;63.28;101658.25;5019150;28;20088;-83
2022/07/31 07:43:41;;;;;;;1.58;1.48;;;;;;;23.24;63.05;101651.19;5018980;28;20040;-83
2022/07/31 07:46:07;;;;;;;0.45;0.35;;;;;;;23.30;63.08;101654.50;5019706;28;20458;-82
2022/07/31 07:48:34;;;;;;;2.13;0.73;;;;;;;23.20;63.91;101659.59;5020062;28;20056;-82
2022/07/31 07:51:00;;;;;;;1.65;1.55;;;;;;;23.24;63.72;101653.00;5020506;28;20507;-82
2022/07/31 07:53:26;;;;;;;1.58;1.48;;;;;;;23.07;63.89;101662.13;5019094;28;20480;-82
2022/07/31 07:55:52;;;;;;;1.42;1.35;;;;;;;23.03;64.19;101664.16;5019420;28;20030;-83
2022/07/31 07:58:18;;;;;;;3.40;1.40;;;;;;;23.02;64.07;101662.41;5019085;28;20026;-83
2022/07/31 08:00:45;;;;;;;0.40;0.40;;;;;;;22.97;64.86;101669.03;5018041;28;20065;-83
2022/07/31 08:03:11;;;;;;;1.05;1.05;;;;;;;23.02;64.32;101666.94;5018912;28;20030;-83
2022/07/31 08:05:37;;;;;;;0.50;0.50;;;;;;;22.98;64.89;101668.06;5018964;28;20026;-83
2022/07/31 08:08:03;;;;;;;0.20;0.20;;;;;;;23.01;64.94;101663.34;5018346;28;20052;-83
2022/07/31 08:10:29;;;;;;;1.10;0.68;;;;;;;22.90;64.98;101669.41;5018356;28;20113;-83
2022/07/31 08:12:56;;;;;;;1.00;0.98;;;;;;;22.93;65.38;101668.38;5017878;28;20025;-83
2022/07/31 08:15:23;;;;;;;3.83;1.65;;;;;;;22.98;64.47;101663.56;5018810;28;20094;-84
2022/07/31 08:17:49;;;;;;;0.77;0.77;;;;;;;22.97;65.48;101660.91;5019045;28;20562;-83
2022/07/31 08:20:15;;;;;;;4.47;1.17;;;;;;;22.93;64.65;101669.22;5019499;28;20104;-83
2022/07/31 08:22:41;;;;;;;1.30;0.93;;;;;;;22.95;64.78;101666.41;5018825;28;20092;-83
2022/07/31 08:25:07;;;;;;;0.35;0.35;;;;;;;23.03;64.70;101663.25;5019931;28;20040;-83
2022/07/31 08:27:34;;;;;;;0.30;0.30;;;;;;;23.08;65.08;101661.19;5019283;28;20029;-83
2022/07/31 08:30:01;;;;;;;0.80;0.80;;;;;;;23.10;64.39;101659.22;5018079;28;20038;-84
2022/07/31 08:32:27;;;;;;;0.80;0.80;;;;;;;23.13;65.28;101652.78;5016762;28;20107;-83
2022/07/31 08:34:54;;;;;;;1.23;1.15;;;;;;;23.15;64.98;101656.25;5017651;28;20105;-83
2022/07/31 08:37:21;;;;;;;1.75;1.65;;;;;;;23.14;64.93;101654.50;5018155;28;20053;-84
2022/07/31 08:39:49;;;;;;;1.75;1.65;;;;;;;23.30;64.36;101651.78;5017546;28;20030;-82
2022/07/31 08:42:16;;;;;;;0.30;0.30;;;;;;;23.34;64.44;101645.22;5016867;28;20385;-82
2022/07/31 08:44:44;;;;;;;1.52;0.90;;;;;;;23.50;64.02;101655.97;5018381;28;20084;-81
2022/07/31 08:47:13;;;;;;;0.40;0.40;;;;;;;23.61;63.71;101647.19;5018483;28;20034;-83
2022/07/31 08:52:23;;;;;;;0.15;0.15;;;;;;;23.58;63.45;101653.66;5114207;27;20380;-83
2022/07/31 08:54:51;;;;;;;0.82;0.82;;;;;;;23.74;63.13;101653.56;5114529;28;20035;-83
2022/07/31 08:57:18;;;;;;;0.47;0.47;;;;;;;23.80;63.25;101652.31;5115241;28;20498;-84
2022/07/31 08:59:44;;;;;;;1.75;1.35;;;;;;;23.89;63.20;101652.59;5113945;28;20047;-84
2022/07/31 09:02:11;;;;;;;0.65;0.65;;;;;;;23.81;62.79;101656.75;5113777;28;20606;-82
2022/07/31 09:04:38;;;;;;;1.00;0.88;;;;;;;23.75;62.83;101658.88;5116159;28;20027;-83
2022/07/31 09:07:08;;;;;;;0.20;0.20;;;;;;;23.89;62.75;101659.84;5115852;28;20032;-83
2022/07/31 09:09:34;;;;;;;0.70;0.43;;;;;;;23.75;62.79;101656.19;5115192;28;20028;-82
2022/07/31 09:12:03;;;;;;;1.30;1.30;;;;;;;23.92;62.56;101662.38;5113483;28;20039;-84
2022/07/31 09:14:33;;;;;;;0.52;0.52;;;;;;;24.02;62.42;101651.84;5114109;28;20036;-81
2022/07/31 09:17:00;;;;;;;0.57;0.57;;;;;;;24.00;61.75;101659.19;5114507;28;20030;-82
2022/07/31 09:19:44;;;;;;;0.70;0.70;;;;;;;24.00;61.62;101649.25;5114347;28;20107;-82
2022/07/31 09:22:27;;;;;;;0.40;0.40;;;;;;;23.94;61.21;101656.88;5113586;28;20016;-82
2022/07/31 09:25:04;;;;;;;0.35;0.35;;;;;;;23.92;61.74;101651.56;5115481;28;20047;-83
2022/07/31 09:27:30;;;;;;;0.63;0.63;;;;;;;23.82;61.68;101656.66;5115106;28;20038;-83
2022/07/31 09:29:57;;;;;;;0.20;0.20;;;;;;;23.84;61.55;101657.44;5114952;28;20122;-83
2022/07/31 09:32:24;;;;;;;0.20;0.20;;;;;;;23.92;61.39;101651.56;5112244;28;20050;-83
2022/07/31 09:34:50;;;;;;;0.30;0.30;;;;;;;23.88;60.88;101653.56;5113903;28;20043;-82
2022/07/31 09:37:18;;;;;;;1.05;0.95;;;;;;;23.90;60.95;101654.34;5113043;28;20038;-83
2022/07/31 09:39:50;;;;;;;1.48;0.73;;;;;;;24.00;60.99;101653.78;5113132;28;20035;-83
2022/07/31 09:42:17;;;;;;;0.13;0.13;;;;;;;23.96;60.79;101647.69;5113341;28;20020;-84
2022/07/31 09:44:45;;;;;;;2.92;0.68;;;;;;;23.86;60.84;101655.50;5112990;28;20035;-83
2022/07/31 09:47:29;;;;;;;1.33;1.27;;;;;;;24.03;61.15;101650.88;5113043;28;20071;-82
2022/07/31 09:49:59;;;;;;;0.35;0.35;;;;;;;23.93;61.49;101660.56;5111960;28;20023;-84
2022/07/31 09:52:27;;;;;;;0.22;0.22;;;;;;;23.83;62.03;101652.97;5112723;28;20406;-82
2022/07/31 09:55:14;;;;;;;0.60;0.60;;;;;;;23.76;62.47;101651.63;5114023;28;20024;-83
2022/07/31 09:57:51;;;;;;;2.15;0.75;;;;;;;23.66;62.83;101655.88;5113746;28;20038;-83
2022/07/31 10:00:18;;;;;;;0.85;0.85;;;;;;;23.53;63.37;101651.22;5113631;28;20023;-83
2022/07/31 10:02:46;;;;;;;0.25;0.25;;;;;;;23.47;64.00;101654.31;5104622;28;20107;-83
2022/07/31 10:05:13;;;;;;;0.85;0.68;;;;;;;23.37;63.97;101655.84;5100572;28;20031;-83
2022/07/31 10:07:40;;;;;;;0.77;0.77;;;;;;;23.27;64.77;101655.56;5099214;28;20042;-82
2022/07/31 10:10:08;;;;;;;0.45;0.45;;;;;;;23.22;64.62;101652.25;5100245;28;20445;-81
2022/07/31 10:12:39;;;;;;;1.17;1.17;;;;;;;23.13;65.42;101655.47;5099763;28;20028;-82
2022/07/31 10:15:10;;;;;;;0.30;0.30;;;;;;;23.20;65.00;101657.75;5101071;28;20032;-81
2022/07/31 10:17:40;;;;;;;2.17;1.63;;;;;;;23.20;64.96;101654.19;5101282;28;20024;-82
2022/07/31 10:20:08;;;;;;;0.65;0.65;;;;;;;23.15;65.33;101650.84;5101777;28;20023;-83
2022/07/31 10:22:42;;;;;;;0.47;0.47;;;;;;;22.99;66.46;101646.38;5102151;28;20499;-83
2022/07/31 10:25:12;;;;;;;2.40;1.50;;;;;;;22.93;66.81;101644.91;5101322;28;20161;-83
2022/07/31 10:27:39;;;;;;;0.20;0.20;;;;;;;23.01;66.59;101636.34;5100731;28;20028;-82
2022/07/31 10:30:07;;;;;;;0.93;0.70;;;;;;;23.06;66.35;101642.31;5100999;28;20439;-83
2022/07/31 10:32:33;;;;;;;0.65;0.65;;;;;;;23.01;66.10;101638.19;5099857;28;20460;-83
2022/07/31 10:35:02;;;;;;;1.35;1.30;;;;;;;23.06;66.23;101636.06;5099364;28;20059;-83
2022/07/31 10:37:39;;;;;;;0.30;0.30;;;;;;;23.07;66.20;101632.41;5099625;28;20035;-83
2022/07/31 10:45:25;;;;;;;1.13;0.90;;;;;;;22.76;66.57;101645.91;5118577;27;20407;-85
2022/07/31 10:47:58;;;;;;;0.52;0.52;;;;;;;22.84;66.41;101634.66;5118260;28;20074;-85
2022/07/31 10:50:26;;;;;;;0.82;0.82;;;;;;;22.78;66.79;101637.72;5117372;28;20032;-85
2022/07/31 10:52:53;;;;;;;0.70;0.70;;;;;;;22.87;66.61;101636.31;5116661;28;20481;-85
2022/07/31 10:55:24;;;;;;;1.13;1.13;;;;;;;22.72;67.23;101638.09;5117288;28;20027;-85
2022/07/31 10:57:50;;;;;;;0.60;0.60;;;;;;;22.64;67.48;101632.25;5116251;28;20039;-85
2022/07/31 11:00:21;;;;;;;4.18;1.75;;;;;;;22.69;67.63;101632.84;5116072;28;20027;-85
2022/07/31 11:02:47;;;;;;;0.43;0.43;;;;;;;22.70;67.55;101642.69;5114750;28;20095;-86
2022/07/31 11:08:00;;;;;;;0.67;0.50;;;;;;;22.72;67.87;101627.28;5123265;27;1165281;-84
2022/07/31 11:10:27;;;;;;;0.30;0.30;;;;;;;22.81;67.77;101620.47;5136042;27;20031;-83
2022/07/31 11:13:09;;;;;;;2.63;1.27;;;;;;;23.13;67.18;101621.22;5127079;27;20024;-84
2022/07/31 11:15:36;;;;;;;0.20;0.20;;;;;;;23.15;66.73;101611.16;5114366;28;20020;-84
2022/07/31 11:18:19;;;;;;;0.82;0.82;;;;;;;23.42;65.94;101615.88;5114302;28;20039;-83
2022/07/31 11:20:57;;;;;;;0.22;0.22;;;;;;;23.35;66.04;101617.22;5113484;28;20510;-84
2022/07/31 11:23:29;;;;;;;0.30;0.30;;;;;;;23.54;65.40;101609.72;5116910;22;20037;-80
2022/07/31 11:25:59;;;;;;;0.30;0.30;;;;;;;23.50;65.13;101613.56;5041921;28;20030;-80
2022/07/31 11:28:27;;;;;;;0.95;0.95;;;;;;;23.58;64.82;101611.25;5042303;28;20520;-81
2022/07/31 11:36:11;;;;;;;0.40;0.40;;;;;;;23.66;64.54;101616.16;5074938;27;1881008;-77
2022/07/31 11:38:40;;;;;;;0.20;0.20;;;;;;;23.56;64.61;101621.31;5113406;28;20469;-78
2022/07/31 11:41:07;;;;;;;0.22;0.22;;;;;;;23.61;64.66;101630.97;5130259;28;20126;-77
2022/07/31 11:43:33;;;;;;;0.30;0.30;;;;;;;23.49;64.37;101628.06;5130461;28;20031;-77
2022/07/31 11:46:00;;;;;;;1.33;1.23;;;;;;;23.72;63.22;101626.59;5131370;27;20034;-77
2022/07/31 11:48:30;;;;;;;0.30;0.30;;;;;;;23.81;63.24;101627.84;5132048;28;20443;-77
2022/07/31 11:50:57;;;;;;;0.45;0.45;;;;;;;24.01;62.26;101623.03;5130587;28;20226;-77